Time;durP1;ratioP1;P1;durP2;ratioP2;P2;SDS_P1;SDS_P2;PMS_P1;PMS_P2;Temp;Humidity;BMP_temperature;BMP_pressure;BME280_temperature;BME280_humidity;BME280_pressure;Samples;Min_cycle;Max_cycle;Signal;HPM_P1;HPM_P2
2022/01/14 00:02:04;;;;;;;36.15;19.40;;;6.30;99.90;;;;;;4993274;28;20045;-81
2022/01/14 00:04:30;;;;;;;36.47;19.23;;;6.40;99.90;;;;;;4999006;28;20036;-81
2022/01/14 00:06:56;;;;;;;34.20;21.35;;;6.40;99.90;;;;;;5004182;28;20049;-80
2022/01/14 00:09:24;;;;;;;33.25;18.90;;;6.40;99.90;;;;;;5004769;28;20041;-80
2022/01/14 00:11:55;;;;;;;30.13;18.77;;;6.30;99.90;;;;;;5000926;28;20179;-81
2022/01/14 00:14:35;;;;;;;36.55;18.92;;;6.30;99.90;;;;;;4982548;28;20049;-81
2022/01/14 00:17:01;;;;;;;39.83;18.65;;;6.30;99.90;;;;;;5008496;28;20084;-81
2022/01/14 00:19:27;;;;;;;34.55;18.48;;;6.30;99.90;;;;;;5001034;28;20088;-81
2022/01/14 00:21:52;;;;;;;30.90;18.77;;;6.30;99.90;;;;;;5001873;28;20037;-80
2022/01/14 00:32:31;;;;;;;34.60;19.85;;;6.30;99.90;;;;;;4998208;28;20054;-81
2022/01/14 00:34:56;;;;;;;34.28;19.50;;;6.30;99.90;;;;;;4997114;28;20121;-81
2022/01/14 00:37:25;;;;;;;39.47;19.08;;;6.30;99.90;;;;;;4999389;28;20531;-81
2022/01/14 00:39:51;;;;;;;35.78;19.08;;;6.40;99.90;;;;;;5016088;28;20045;-81
2022/01/14 00:42:17;;;;;;;33.47;17.83;;;6.30;99.90;;;;;;5004813;28;20057;-81
2022/01/14 00:44:43;;;;;;;34.40;16.98;;;6.30;99.90;;;;;;4988417;28;20221;-81
2022/01/14 00:47:09;;;;;;;33.20;18.42;;;6.30;99.90;;;;;;5002100;28;20045;-81
2022/01/14 00:49:34;;;;;;;34.80;18.90;;;6.30;99.90;;;;;;4985538;28;20053;-81
2022/01/14 00:52:00;;;;;;;35.90;17.80;;;6.30;99.90;;;;;;4985870;28;20046;-80
2022/01/14 00:54:26;;;;;;;34.63;17.25;;;6.30;99.90;;;;;;4985902;28;20460;-81
2022/01/14 00:57:14;;;;;;;36.00;19.58;;;6.30;99.90;;;;;;4998235;28;20049;-80
2022/01/14 00:59:40;;;;;;;35.47;19.73;;;6.30;99.90;;;;;;5015895;28;20420;-81
2022/01/14 01:02:06;;;;;;;32.40;17.73;;;6.30;99.90;;;;;;4988448;28;20045;-81
2022/01/14 01:04:36;;;;;;;35.05;18.05;;;6.30;99.90;;;;;;4984603;28;20147;-81
2022/01/14 01:07:05;;;;;;;37.22;18.70;;;6.30;99.90;;;;;;4998613;28;20227;-81
2022/01/14 01:09:32;;;;;;;30.88;18.10;;;6.20;99.90;;;;;;5015380;28;20624;-81
2022/01/14 01:12:29;;;;;;;34.85;18.33;;;6.20;99.90;;;;;;5003530;28;20539;-81
2022/01/14 01:15:05;;;;;;;31.20;16.73;;;6.20;99.90;;;;;;4999051;28;20493;-81
2022/01/14 01:17:32;;;;;;;34.28;17.90;;;6.30;99.90;;;;;;5001523;28;20184;-81
2022/01/14 01:19:59;;;;;;;33.10;18.15;;;6.20;99.90;;;;;;4986410;28;20296;-81
2022/01/14 01:22:26;;;;;;;39.42;20.48;;;6.10;99.90;;;;;;4999571;28;20104;-81
2022/01/14 01:24:52;;;;;;;33.08;18.30;;;6.10;99.90;;;;;;4987218;28;20045;-81
2022/01/14 01:27:20;;;;;;;35.67;18.48;;;6.10;99.90;;;;;;4999970;28;20042;-81
2022/01/14 01:29:52;;;;;;;32.30;18.67;;;6.10;99.90;;;;;;4987053;28;20044;-81
2022/01/14 01:32:18;;;;;;;36.15;19.10;;;6.10;99.90;;;;;;5002373;28;20603;-81
2022/01/14 01:34:44;;;;;;;37.55;19.02;;;6.10;99.90;;;;;;4986373;28;20480;-80
2022/01/14 01:37:10;;;;;;;31.70;19.33;;;6.00;99.90;;;;;;5004728;28;20136;-81
2022/01/14 01:39:35;;;;;;;38.63;19.40;;;6.00;99.90;;;;;;5006184;28;20068;-81
2022/01/14 01:42:08;;;;;;;31.85;17.58;;;6.00;99.90;;;;;;5003415;28;20045;-81
2022/01/14 01:44:38;;;;;;;35.05;17.92;;;6.00;99.90;;;;;;5005907;28;20051;-81
2022/01/14 01:47:05;;;;;;;33.35;18.60;;;6.00;99.90;;;;;;5009239;28;20322;-81
2022/01/14 01:49:35;;;;;;;32.53;18.20;;;6.00;99.90;;;;;;4990792;28;20041;-81
2022/01/14 01:52:02;;;;;;;33.42;16.85;;;6.00;99.90;;;;;;5005287;28;20049;-81
2022/01/14 01:54:28;;;;;;;33.50;17.98;;;6.10;99.90;;;;;;5003797;28;20063;-81
2022/01/14 01:56:55;;;;;;;37.63;17.92;;;6.10;99.90;;;;;;4987940;28;20447;-81
2022/01/14 01:59:22;;;;;;;34.97;18.45;;;6.10;99.90;;;;;;5017907;28;20497;-81
2022/01/14 02:01:49;;;;;;;36.38;18.33;;;6.10;99.90;;;;;;4988781;28;20057;-81
2022/01/14 02:04:15;;;;;;;35.80;18.98;;;6.10;99.90;;;;;;5025065;28;20049;-81
2022/01/14 02:06:41;;;;;;;32.55;18.92;;;6.10;99.90;;;;;;5001003;28;20069;-81
2022/01/14 02:09:12;;;;;;;35.72;17.38;;;6.20;99.90;;;;;;5001631;28;20080;-81
2022/01/14 02:11:39;;;;;;;37.60;19.65;;;6.20;99.90;;;;;;5005816;28;20077;-81
2022/01/14 02:14:13;;;;;;;37.40;18.95;;;6.20;99.90;;;;;;4999604;28;20049;-80
2022/01/14 02:22:56;;;;;;;37.83;18.42;;;6.30;99.90;;;;;;5020022;28;20075;-81
2022/01/14 02:25:30;;;;;;;36.05;18.00;;;6.20;99.90;;;;;;4989228;28;20049;-81
2022/01/14 02:28:01;;;;;;;38.80;18.30;;;6.30;99.90;;;;;;5003733;28;20030;-81
2022/01/14 02:30:29;;;;;;;32.65;18.63;;;6.30;99.90;;;;;;5006170;28;20592;-81
2022/01/14 02:32:55;;;;;;;34.38;17.80;;;6.30;99.90;;;;;;4972014;28;20116;-81
2022/01/14 02:35:21;;;;;;;33.35;18.17;;;6.30;99.90;;;;;;5006237;28;20509;-81
2022/01/14 02:37:47;;;;;;;37.67;18.63;;;6.30;99.90;;;;;;5000334;28;20040;-81
2022/01/14 02:40:13;;;;;;;34.13;18.10;;;6.30;99.90;;;;;;4988759;28;20614;-81
2022/01/14 02:42:39;;;;;;;38.20;17.35;;;6.30;99.90;;;;;;4997085;28;20147;-81
2022/01/14 02:45:07;;;;;;;37.58;18.75;;;6.30;99.90;;;;;;5005623;28;20121;-81
2022/01/14 02:47:33;;;;;;;32.10;17.73;;;6.40;99.90;;;;;;4989726;28;20128;-81
2022/01/14 02:49:59;;;;;;;36.50;18.63;;;6.40;99.90;;;;;;5007170;28;20124;-80
2022/01/14 02:55:18;;;;;;;39.40;19.55;;;6.40;99.90;;;;;;5020441;28;20111;-81
2022/01/14 02:57:46;;;;;;;36.10;18.63;;;6.40;99.90;;;;;;4988487;28;20063;-81
2022/01/14 03:00:14;;;;;;;40.30;19.58;;;6.40;99.90;;;;;;5024202;28;20037;-80
2022/01/14 03:02:44;;;;;;;36.15;19.42;;;6.40;99.90;;;;;;5004415;28;20468;-81
2022/01/14 03:05:10;;;;;;;44.95;20.58;;;6.50;99.90;;;;;;5003363;28;20428;-81
2022/01/14 03:07:37;;;;;;;36.72;19.33;;;6.40;99.90;;;;;;5002912;28;20513;-81
2022/01/14 03:10:04;;;;;;;39.42;19.60;;;6.40;99.90;;;;;;4987905;28;20536;-81
2022/01/14 03:12:30;;;;;;;36.33;19.95;;;6.40;99.90;;;;;;4997917;28;20049;-81
2022/01/14 03:14:56;;;;;;;37.58;20.27;;;6.40;99.90;;;;;;5002060;28;20033;-81
2022/01/14 03:17:22;;;;;;;35.72;19.60;;;6.40;99.90;;;;;;5000065;28;20469;-81
2022/01/14 03:19:50;;;;;;;37.75;18.70;;;6.50;99.90;;;;;;5002854;28;20041;-81
2022/01/14 03:22:30;;;;;;;35.72;19.00;;;6.40;99.90;;;;;;5003680;28;20673;-81
2022/01/14 03:27:22;;;;;;;36.70;19.60;;;6.40;99.90;;;;;;5003781;28;20052;-81
2022/01/14 03:29:48;;;;;;;41.53;19.17;;;6.40;99.90;;;;;;4989466;28;20041;-80
2022/01/14 03:32:14;;;;;;;39.45;20.95;;;6.50;99.90;;;;;;4983648;28;20056;-81
2022/01/14 03:34:40;;;;;;;35.63;18.55;;;6.50;99.90;;;;;;4999772;28;20365;-81
2022/01/14 03:37:06;;;;;;;42.78;20.52;;;6.40;99.90;;;;;;5004016;28;20049;-81
2022/01/14 03:39:32;;;;;;;38.03;19.80;;;6.50;99.90;;;;;;4985544;28;20509;-81
2022/01/14 03:41:58;;;;;;;43.47;19.88;;;6.50;99.90;;;;;;5002809;28;20033;-81
2022/01/14 03:44:23;;;;;;;35.78;19.73;;;6.50;99.90;;;;;;5003206;28;20133;-81
2022/01/14 03:46:49;;;;;;;47.03;19.42;;;6.50;99.90;;;;;;5023115;28;20119;-81
2022/01/14 03:49:15;;;;;;;37.88;19.17;;;6.50;99.90;;;;;;5003300;28;20061;-81
2022/01/14 03:51:42;;;;;;;39.90;19.27;;;6.50;99.90;;;;;;4983308;28;20037;-81
2022/01/14 03:54:08;;;;;;;33.50;17.73;;;6.50;99.90;;;;;;5001395;28;20415;-81
2022/01/14 03:56:37;;;;;;;34.28;19.08;;;6.50;99.90;;;;;;4979462;28;20141;-81
2022/01/14 03:59:04;;;;;;;37.30;19.23;;;6.50;99.90;;;;;;5001340;28;20139;-81
2022/01/14 04:01:30;;;;;;;34.08;19.50;;;6.50;99.90;;;;;;4987565;28;20077;-81
2022/01/14 04:03:55;;;;;;;34.00;18.73;;;6.50;99.90;;;;;;5002049;28;20124;-81
2022/01/14 04:06:21;;;;;;;39.67;18.73;;;6.60;99.90;;;;;;4980838;28;20125;-81
2022/01/14 04:08:47;;;;;;;38.88;18.92;;;6.50;99.90;;;;;;4998247;28;20068;-81
2022/01/14 04:11:13;;;;;;;42.45;19.40;;;6.60;99.90;;;;;;5003298;28;20060;-81
2022/01/14 04:13:50;;;;;;;36.53;18.70;;;6.60;99.90;;;;;;4991127;28;20091;-81
2022/01/14 04:16:18;;;;;;;37.03;18.80;;;6.60;99.90;;;;;;5019006;28;20128;-81
2022/01/14 04:18:48;;;;;;;36.97;18.85;;;6.60;99.90;;;;;;4988802;28;20044;-81
2022/01/14 04:21:14;;;;;;;36.47;17.88;;;6.60;99.90;;;;;;5006168;28;20477;-81
2022/01/14 04:23:39;;;;;;;36.13;19.08;;;6.60;99.90;;;;;;4988499;28;20045;-81
2022/01/14 04:26:05;;;;;;;37.60;17.77;;;6.60;99.90;;;;;;5003868;28;20041;-81
2022/01/14 04:28:35;;;;;;;30.23;17.73;;;6.60;99.90;;;;;;5021297;28;20037;-81
2022/01/14 04:31:06;;;;;;;36.80;18.77;;;6.60;99.90;;;;;;4988500;28;20164;-81
2022/01/14 04:33:33;;;;;;;34.47;19.42;;;6.70;99.90;;;;;;5000376;28;20465;-81
2022/01/14 04:36:00;;;;;;;30.23;18.40;;;6.60;99.90;;;;;;4991421;28;20048;-81
2022/01/14 04:38:30;;;;;;;38.80;18.45;;;6.70;99.90;;;;;;4978583;28;20102;-80
2022/01/14 04:40:56;;;;;;;35.28;18.70;;;6.60;99.90;;;;;;4997856;28;20058;-80
2022/01/14 04:43:22;;;;;;;31.88;19.13;;;6.60;99.90;;;;;;5002039;28;20053;-81
2022/01/14 04:48:29;;;;;;;33.38;18.63;;;6.60;99.90;;;;;;5023484;28;20053;-81
2022/01/14 04:50:55;;;;;;;40.10;19.80;;;6.50;99.90;;;;;;5017816;28;20048;-80
2022/01/14 04:53:22;;;;;;;37.58;19.33;;;6.50;99.90;;;;;;5001179;28;20444;-81
2022/01/14 04:55:50;;;;;;;36.70;20.15;;;6.30;99.90;;;;;;4985953;28;20401;-81
2022/01/14 04:58:16;;;;;;;40.38;21.02;;;6.30;99.90;;;;;;4997568;28;20104;-81
2022/01/14 05:00:41;;;;;;;41.47;20.83;;;6.30;99.90;;;;;;5004638;28;20053;-81
2022/01/14 05:03:07;;;;;;;40.33;20.98;;;6.30;99.90;;;;;;4989861;28;20041;-81
2022/01/14 05:05:37;;;;;;;43.42;22.20;;;6.20;99.90;;;;;;5005090;28;20045;-81
2022/01/14 05:08:08;;;;;;;40.33;21.75;;;6.30;99.90;;;;;;4983544;28;20436;-81
2022/01/14 05:10:37;;;;;;;41.30;20.63;;;6.20;99.90;;;;;;5002904;28;20057;-81
2022/01/14 05:13:03;;;;;;;40.90;21.45;;;6.30;99.90;;;;;;5002973;28;20274;-81
2022/01/14 05:15:29;;;;;;;41.40;21.70;;;6.20;99.90;;;;;;5002263;28;20045;-81
2022/01/14 05:17:55;;;;;;;41.83;21.20;;;6.20;99.90;;;;;;5004080;28;20037;-81
2022/01/14 05:20:24;;;;;;;40.97;21.50;;;6.20;99.90;;;;;;5004963;28;20049;-80
2022/01/14 05:22:50;;;;;;;43.67;21.77;;;6.20;99.90;;;;;;5002546;28;20092;-81
2022/01/14 05:25:16;;;;;;;38.53;21.17;;;6.20;99.90;;;;;;4998524;28;20077;-81
2022/01/14 05:27:43;;;;;;;40.75;22.15;;;6.10;99.90;;;;;;5007052;28;20069;-81
2022/01/14 05:30:11;;;;;;;45.88;23.30;;;6.10;99.90;;;;;;5008131;28;20047;-81
2022/01/14 05:32:45;;;;;;;38.65;21.95;;;6.10;99.90;;;;;;5017118;28;20069;-80
2022/01/14 05:35:11;;;;;;;43.50;22.52;;;6.10;99.90;;;;;;5021329;28;20073;-81
2022/01/14 05:37:37;;;;;;;44.50;22.50;;;6.10;99.90;;;;;;5000779;28;20481;-81
2022/01/14 05:40:07;;;;;;;39.38;22.27;;;6.20;99.90;;;;;;5003772;28;20049;-81
2022/01/14 05:42:34;;;;;;;43.58;21.80;;;6.10;99.90;;;;;;4999387;28;20515;-81
2022/01/14 05:45:00;;;;;;;38.90;22.08;;;6.20;99.90;;;;;;5004270;28;20084;-81
2022/01/14 05:47:26;;;;;;;40.83;22.38;;;6.20;99.90;;;;;;5001137;28;20339;-81
2022/01/14 05:49:51;;;;;;;42.10;22.30;;;6.20;99.90;;;;;;5009790;28;20388;-81
2022/01/14 05:52:17;;;;;;;41.22;22.40;;;6.20;99.90;;;;;;5002934;28;20077;-81
2022/01/14 05:54:43;;;;;;;40.10;22.35;;;6.20;99.90;;;;;;5005093;28;20491;-81
2022/01/14 05:57:09;;;;;;;44.28;23.55;;;6.30;99.90;;;;;;4981166;28;20214;-81
2022/01/14 05:59:35;;;;;;;38.30;21.50;;;6.30;99.90;;;;;;4992397;28;20042;-81
2022/01/14 06:02:02;;;;;;;40.97;21.20;;;6.30;99.90;;;;;;5006350;28;20068;-81
2022/01/14 06:04:27;;;;;;;39.40;21.10;;;6.30;99.90;;;;;;4985190;28;20042;-80
2022/01/14 06:06:53;;;;;;;36.22;20.38;;;6.20;99.90;;;;;;4985777;28;20046;-82
2022/01/14 06:09:19;;;;;;;41.72;21.65;;;6.30;99.90;;;;;;4988741;28;20037;-81
2022/01/14 06:11:44;;;;;;;35.08;21.67;;;6.30;99.90;;;;;;4986439;28;20441;-81
2022/01/14 06:14:13;;;;;;;43.10;21.58;;;6.30;99.90;;;;;;5005827;28;20052;-81
2022/01/14 06:16:38;;;;;;;37.25;22.52;;;6.30;99.90;;;;;;4990601;28;20313;-81
2022/01/14 06:19:04;;;;;;;39.70;21.33;;;6.30;99.90;;;;;;4982612;28;20041;-81
2022/01/14 06:21:30;;;;;;;42.03;21.02;;;6.30;99.90;;;;;;5000803;28;20125;-81
2022/01/14 06:23:55;;;;;;;36.45;20.70;;;6.30;99.90;;;;;;4989758;28;20489;-81
2022/01/14 06:26:22;;;;;;;39.50;20.52;;;6.40;99.90;;;;;;4987668;28;20318;-81
2022/01/14 06:28:47;;;;;;;38.45;22.80;;;6.30;99.90;;;;;;4977571;28;20052;-81
2022/01/14 06:31:14;;;;;;;42.55;21.25;;;6.30;99.90;;;;;;4986903;28;20050;-81
2022/01/14 06:33:39;;;;;;;43.15;21.77;;;6.30;99.90;;;;;;5003259;28;20044;-82
2022/01/14 06:36:05;;;;;;;34.28;19.70;;;6.30;99.90;;;;;;5005379;28;20045;-81
2022/01/14 06:38:31;;;;;;;37.47;21.52;;;6.30;99.90;;;;;;4989292;28;20604;-81
2022/01/14 06:40:57;;;;;;;38.60;22.42;;;6.30;99.90;;;;;;5004427;28;20170;-81
2022/01/14 06:43:22;;;;;;;37.15;22.05;;;6.30;99.90;;;;;;5006589;28;20107;-81
2022/01/14 06:45:48;;;;;;;38.45;22.15;;;6.30;99.90;;;;;;4987269;28;20504;-81
2022/01/14 06:48:14;;;;;;;44.08;21.73;;;6.30;99.90;;;;;;4990649;28;20461;-81
2022/01/14 06:50:39;;;;;;;39.38;21.52;;;6.20;99.90;;;;;;4988558;28;20405;-79
2022/01/14 06:53:05;;;;;;;36.63;22.17;;;6.30;99.90;;;;;;4998053;28;20042;-79
2022/01/14 06:55:31;;;;;;;41.20;21.65;;;6.30;99.90;;;;;;4985539;28;20098;-79
2022/01/14 06:57:56;;;;;;;34.08;21.38;;;6.20;99.90;;;;;;4987743;28;20083;-79
2022/01/14 07:00:25;;;;;;;42.80;20.75;;;6.30;99.90;;;;;;4997499;28;20070;-80
2022/01/14 07:02:51;;;;;;;37.17;20.35;;;6.30;99.90;;;;;;5004577;28;20584;-79
2022/01/14 07:05:17;;;;;;;40.28;20.90;;;6.30;99.90;;;;;;4992855;28;20399;-79
2022/01/14 07:07:42;;;;;;;38.92;21.42;;;6.30;99.90;;;;;;5001943;28;20045;-79
2022/01/14 07:10:09;;;;;;;34.65;20.70;;;6.30;99.90;;;;;;5009488;28;20126;-79
2022/01/14 07:12:43;;;;;;;34.20;19.77;;;6.30;99.90;;;;;;5013396;28;20053;-79
2022/01/14 07:15:14;;;;;;;40.92;21.33;;;6.30;99.90;;;;;;5001300;28;20053;-79
2022/01/14 07:17:42;;;;;;;37.63;19.67;;;6.30;99.90;;;;;;5005728;28;20045;-79
2022/01/14 07:20:12;;;;;;;37.00;20.40;;;6.40;99.90;;;;;;5004073;28;20361;-79
2022/01/14 07:22:42;;;;;;;32.35;17.60;;;6.30;99.90;;;;;;5020618;28;20041;-79
2022/01/14 07:25:09;;;;;;;32.17;18.40;;;6.40;99.90;;;;;;5002409;28;20504;-79
2022/01/14 07:27:35;;;;;;;35.38;19.92;;;6.30;99.90;;;;;;5002199;28;20835;-79
2022/01/14 07:30:01;;;;;;;35.60;19.25;;;6.40;99.90;;;;;;4990192;28;20038;-79
2022/01/14 07:32:26;;;;;;;35.45;20.42;;;6.40;99.90;;;;;;4985146;28;20053;-79
2022/01/14 07:34:52;;;;;;;28.52;19.98;;;6.40;99.90;;;;;;4978772;28;20049;-79
2022/01/14 07:37:18;;;;;;;32.08;18.83;;;6.40;99.90;;;;;;4986976;28;20128;-79
2022/01/14 07:39:44;;;;;;;32.45;17.52;;;6.40;99.90;;;;;;5002900;28;20572;-79
2022/01/14 07:42:11;;;;;;;31.63;17.85;;;6.40;99.90;;;;;;5003374;28;20355;-79
2022/01/14 07:44:38;;;;;;;29.60;17.60;;;6.50;99.90;;;;;;5014513;28;20040;-79
2022/01/14 07:47:04;;;;;;;32.90;17.73;;;6.40;99.90;;;;;;5012313;28;20037;-79
2022/01/14 07:49:30;;;;;;;31.48;16.80;;;6.50;99.90;;;;;;5000330;28;20041;-79
2022/01/14 07:51:55;;;;;;;32.40;17.08;;;6.40;99.90;;;;;;4979272;28;20042;-79
2022/01/14 07:54:21;;;;;;;34.50;16.38;;;6.40;99.90;;;;;;4985788;28;20045;-79
2022/01/14 07:56:52;;;;;;;31.02;17.55;;;6.50;99.90;;;;;;4968728;28;20309;-79
2022/01/14 07:59:20;;;;;;;33.83;17.45;;;6.50;99.90;;;;;;5002826;28;20033;-79
2022/01/14 08:01:48;;;;;;;32.10;15.77;;;6.50;99.90;;;;;;5037362;28;20151;-79
2022/01/14 08:04:15;;;;;;;30.98;15.85;;;6.50;99.90;;;;;;5005214;28;20929;-79
2022/01/14 08:06:46;;;;;;;32.28;16.38;;;6.50;99.90;;;;;;5015232;28;20041;-79
2022/01/14 08:09:13;;;;;;;27.95;15.68;;;6.60;99.90;;;;;;5005648;28;20432;-79
2022/01/14 08:11:38;;;;;;;37.97;15.82;;;6.50;99.90;;;;;;5004711;28;20049;-79
2022/01/14 08:14:04;;;;;;;30.83;15.63;;;6.60;99.90;;;;;;5027746;28;20052;-79
2022/01/14 08:16:30;;;;;;;38.63;15.00;;;6.60;99.90;;;;;;4990985;28;20079;-79
2022/01/14 08:18:56;;;;;;;26.67;15.32;;;6.60;99.90;;;;;;5030225;28;20480;-79
2022/01/14 08:21:21;;;;;;;32.75;15.68;;;6.60;99.90;;;;;;5003911;28;20057;-79
2022/01/14 08:23:47;;;;;;;28.00;14.40;;;6.70;99.90;;;;;;5003738;28;20460;-79
2022/01/14 08:26:14;;;;;;;26.63;13.82;;;6.60;99.90;;;;;;4998756;28;20905;-79
2022/01/14 08:28:39;;;;;;;26.48;14.43;;;6.70;99.90;;;;;;5002780;28;20400;-80
2022/01/14 08:31:05;;;;;;;31.92;14.18;;;6.70;99.90;;;;;;5003660;28;20037;-79
2022/01/14 08:33:31;;;;;;;26.88;13.32;;;6.70;99.90;;;;;;5001443;28;20060;-79
2022/01/14 08:35:57;;;;;;;25.85;13.82;;;6.70;99.90;;;;;;5002640;28;20493;-79
2022/01/14 08:38:23;;;;;;;30.65;14.20;;;6.80;99.90;;;;;;5001525;28;20055;-79
2022/01/14 08:40:50;;;;;;;26.30;13.48;;;6.80;99.90;;;;;;5002996;28;20045;-79
2022/01/14 08:43:16;;;;;;;23.75;12.68;;;6.80;99.90;;;;;;4982051;28;20532;-79
2022/01/14 08:45:42;;;;;;;30.65;12.75;;;6.80;99.90;;;;;;5004946;28;20032;-79
2022/01/14 08:48:08;;;;;;;28.60;13.13;;;6.80;99.90;;;;;;5003513;28;20037;-79
2022/01/14 08:50:36;;;;;;;28.20;13.57;;;6.90;99.90;;;;;;4982540;28;20192;-79
2022/01/14 08:53:04;;;;;;;27.70;12.98;;;6.90;99.90;;;;;;4986492;28;20056;-79
2022/01/14 08:55:30;;;;;;;25.55;12.55;;;6.90;99.90;;;;;;5019274;28;20067;-79
2022/01/14 08:57:57;;;;;;;26.15;12.15;;;6.90;99.90;;;;;;5001204;28;20473;-79
2022/01/14 09:00:24;;;;;;;24.65;11.88;;;7.00;99.90;;;;;;4999938;28;20358;-79
2022/01/14 09:02:54;;;;;;;24.38;11.85;;;7.00;99.90;;;;;;4996164;28;20037;-79
2022/01/14 09:05:21;;;;;;;25.27;11.25;;;7.00;99.90;;;;;;4999780;28;20084;-79
2022/01/14 09:07:51;;;;;;;19.83;10.48;;;7.10;99.90;;;;;;5015277;28;20137;-79
2022/01/14 09:10:17;;;;;;;19.50;10.40;;;7.10;99.90;;;;;;5001310;28;20670;-79
2022/01/14 09:12:43;;;;;;;18.73;10.07;;;7.10;99.90;;;;;;5002507;28;20057;-79
2022/01/14 09:15:10;;;;;;;22.40;10.60;;;7.10;99.90;;;;;;5017908;28;20125;-79
2022/01/14 09:17:37;;;;;;;21.38;9.98;;;7.20;99.90;;;;;;5002601;28;20079;-79
2022/01/14 09:20:04;;;;;;;21.52;9.45;;;7.20;99.90;;;;;;5032274;28;20141;-79
2022/01/14 09:22:32;;;;;;;20.33;10.25;;;7.20;99.90;;;;;;5033078;28;20052;-79
2022/01/14 09:24:59;;;;;;;19.58;9.48;;;7.20;99.90;;;;;;5003555;28;20045;-79
2022/01/14 09:27:29;;;;;;;23.90;9.52;;;7.30;99.90;;;;;;5001957;28;20048;-79
2022/01/14 09:29:57;;;;;;;18.02;8.40;;;7.30;99.90;;;;;;5035708;28;20044;-79
2022/01/14 09:32:22;;;;;;;21.73;8.15;;;7.30;99.90;;;;;;5003843;28;20247;-79
2022/01/14 09:34:49;;;;;;;16.33;7.60;;;7.30;99.90;;;;;;5017117;28;20033;-79
2022/01/14 09:37:15;;;;;;;22.35;8.65;;;7.30;99.90;;;;;;5038934;28;20164;-79
2022/01/14 09:39:43;;;;;;;17.75;8.52;;;7.40;99.90;;;;;;5015479;28;20199;-79
2022/01/14 09:42:16;;;;;;;20.02;8.35;;;7.40;99.90;;;;;;5001706;28;20045;-80
2022/01/14 09:44:43;;;;;;;12.43;7.47;;;7.50;99.90;;;;;;5034858;28;20150;-79
2022/01/14 09:47:16;;;;;;;22.67;8.32;;;7.50;99.90;;;;;;5000623;28;20046;-79
2022/01/14 09:49:43;;;;;;;15.35;6.97;;;7.50;99.90;;;;;;5003847;28;20123;-79
2022/01/14 09:52:10;;;;;;;18.13;7.60;;;7.50;99.90;;;;;;5001677;28;20033;-80
2022/01/14 09:54:37;;;;;;;16.60;7.45;;;7.50;99.90;;;;;;5023496;28;20280;-79
2022/01/14 09:57:03;;;;;;;18.52;7.07;;;7.50;99.90;;;;;;5001666;28;20045;-79
2022/01/14 09:59:28;;;;;;;14.00;6.60;;;7.60;99.90;;;;;;5006146;28;20087;-79
2022/01/14 10:01:54;;;;;;;18.40;6.82;;;7.60;99.90;;;;;;5009296;28;20044;-80
2022/01/14 10:04:22;;;;;;;14.52;7.10;;;7.60;99.90;;;;;;5020043;28;20033;-79
2022/01/14 10:06:51;;;;;;;15.93;7.57;;;7.60;99.90;;;;;;5022969;28;20449;-79
2022/01/14 10:09:22;;;;;;;11.95;6.60;;;7.70;99.90;;;;;;5006298;28;20041;-80
2022/01/14 10:12:13;;;;;;;22.00;6.95;;;7.70;99.90;;;;;;5027859;28;20042;-79
2022/01/14 10:14:43;;;;;;;13.38;6.55;;;7.70;99.90;;;;;;5003027;28;20064;-79
2022/01/14 10:17:11;;;;;;;14.68;6.25;;;7.80;99.90;;;;;;5005885;28;20396;-79
2022/01/14 10:19:40;;;;;;;13.30;5.60;;;7.70;99.90;;;;;;5033084;28;20049;-79
2022/01/14 10:22:29;;;;;;;13.10;6.57;;;7.70;99.90;;;;;;5004102;28;20048;-79
2022/01/14 10:25:11;;;;;;;15.95;6.40;;;7.70;99.90;;;;;;4990714;28;20081;-79
2022/01/14 10:27:43;;;;;;;12.45;6.00;;;7.80;99.90;;;;;;5034802;28;20041;-79
2022/01/14 10:30:12;;;;;;;15.25;5.88;;;7.80;99.90;;;;;;5015203;28;20493;-79
2022/01/14 10:32:38;;;;;;;15.48;6.13;;;7.80;99.90;;;;;;4985861;28;20031;-80
2022/01/14 10:35:11;;;;;;;12.05;5.70;;;7.80;99.90;;;;;;5004834;28;20496;-79
2022/01/14 10:37:37;;;;;;;17.27;5.88;;;7.80;99.90;;;;;;5004240;28;20120;-79
2022/01/14 10:40:13;;;;;;;14.52;5.70;;;7.80;99.90;;;;;;4990132;28;20120;-79
2022/01/14 10:42:40;;;;;;;21.15;5.70;;;7.80;99.90;;;;;;5033450;28;20046;-79
2022/01/14 10:45:18;;;;;;;16.98;5.07;;;7.80;99.90;;;;;;5006521;28;20117;-79
2022/01/14 10:48:00;;;;;;;15.98;4.85;;;7.80;99.90;;;;;;5033800;28;20516;-79
2022/01/14 10:50:45;;;;;;;14.60;4.45;;;7.80;99.90;;;;;;4985626;28;20076;-79
2022/01/14 10:53:13;;;;;;;;;;;7.70;99.90;;;;;;5008052;28;20064;-79
2022/01/14 10:55:45;;;;;;;11.07;3.88;;;7.70;99.90;;;;;;5004715;28;19935;-79
2022/01/14 10:58:23;;;;;;;13.88;4.45;;;7.70;99.90;;;;;;5034900;28;20047;-79
2022/01/14 11:01:01;;;;;;;14.38;4.57;;;7.80;99.90;;;;;;5024916;28;20128;-79
2022/01/14 11:03:35;;;;;;;15.43;4.07;;;7.80;99.90;;;;;;5033339;28;20042;-79
2022/01/14 11:06:23;;;;;;;15.05;4.03;;;7.80;99.90;;;;;;5015787;28;20042;-79
2022/01/14 11:08:58;;;;;;;9.20;3.88;;;7.80;99.90;;;;;;5006925;28;20108;-79
2022/01/14 11:11:24;;;;;;;;;;;7.70;99.90;;;;;;5030716;28;20112;-79
2022/01/14 11:13:50;;;;;;;10.88;3.95;;;7.80;99.90;;;;;;5006661;28;19917;-79
2022/01/14 11:16:15;;;;;;;9.75;3.78;;;7.80;99.90;;;;;;4992826;28;20052;-79
2022/01/14 11:18:41;;;;;;;9.88;3.58;;;7.80;99.90;;;;;;5030964;28;20041;-79
2022/01/14 11:23:54;;;;;;;16.98;4.15;;;7.80;99.90;;;;;;5032185;28;20479;-80
2022/01/14 11:26:21;;;;;;;12.68;4.55;;;7.90;99.90;;;;;;4991420;28;20084;-79
2022/01/14 11:28:48;;;;;;;19.42;5.05;;;7.90;99.90;;;;;;5006808;28;20033;-79
2022/01/14 11:31:36;;;;;;;13.65;4.45;;;7.90;99.90;;;;;;4986819;28;20069;-79
2022/01/14 11:34:03;;;;;;;13.52;3.90;;;7.80;99.90;;;;;;5037453;28;20104;-79
2022/01/14 11:36:56;;;;;;;10.23;4.20;;;7.80;99.90;;;;;;5037157;28;20041;-79
2022/01/14 11:39:29;;;;;;;11.95;4.30;;;7.80;99.90;;;;;;5031073;28;20053;-79
2022/01/14 11:42:17;;;;;;;9.95;3.90;;;7.80;99.90;;;;;;5002717;28;20049;-80
2022/01/14 11:44:43;;;;;;;17.75;4.20;;;7.80;99.90;;;;;;5005412;28;20051;-79
2022/01/14 11:47:43;;;;;;;12.75;4.82;;;7.90;99.90;;;;;;5005507;28;20041;-79
2022/01/14 11:50:18;;;;;;;16.85;4.50;;;7.90;99.90;;;;;;5001242;28;20041;-79
2022/01/14 11:52:45;;;;;;;12.65;4.53;;;7.90;99.90;;;;;;5015695;28;20044;-79
2022/01/14 11:55:23;;;;;;;16.35;4.25;;;7.90;99.90;;;;;;5016198;28;20043;-79
2022/01/14 11:57:57;;;;;;;14.05;4.55;;;7.90;99.90;;;;;;5001085;28;20042;-79
2022/01/14 12:00:26;;;;;;;17.85;4.68;;;7.90;99.90;;;;;;5033470;28;20200;-79
2022/01/14 12:02:53;;;;;;;13.95;4.53;;;7.90;99.90;;;;;;5015879;28;20073;-79
2022/01/14 12:05:27;;;;;;;19.10;5.13;;;7.80;99.90;;;;;;5035655;28;20124;-79
2022/01/14 12:08:07;;;;;;;20.20;5.43;;;7.90;99.90;;;;;;5002748;28;20453;-79
2022/01/14 12:10:45;;;;;;;12.77;4.75;;;7.90;99.90;;;;;;4985662;28;20496;-79
2022/01/14 12:16:10;;;;;;;16.42;5.63;;;8.00;99.90;;;;;;5000773;28;20593;-79
2022/01/14 12:19:08;;;;;;;18.30;5.03;;;7.90;99.90;;;;;;5003004;28;20449;-79
2022/01/14 12:21:37;;;;;;;18.30;5.38;;;7.90;99.90;;;;;;4990353;28;20037;-79
2022/01/14 12:24:27;;;;;;;14.40;4.85;;;7.90;99.90;;;;;;5034731;28;20037;-80
2022/01/14 12:26:52;;;;;;;21.60;5.40;;;7.90;99.90;;;;;;5020875;28;20480;-80
2022/01/14 12:29:20;;;;;;;17.60;5.18;;;7.80;99.90;;;;;;5006120;28;20431;-79
2022/01/14 12:32:05;;;;;;;14.23;4.72;;;7.90;99.90;;;;;;5030004;28;20041;-80
2022/01/14 12:34:34;;;;;;;18.13;5.85;;;7.90;99.90;;;;;;5003330;28;20445;-79
2022/01/14 12:37:00;;;;;;;15.05;4.65;;;7.90;99.90;;;;;;4998014;28;20107;-80
2022/01/14 12:39:27;;;;;;;16.23;5.45;;;7.90;99.90;;;;;;5017874;28;20623;-79
2022/01/14 12:41:54;;;;;;;13.38;4.45;;;8.00;99.90;;;;;;5000895;28;20081;-79
2022/01/14 12:44:23;;;;;;;14.32;5.15;;;7.90;99.90;;;;;;5029739;28;20041;-79
2022/01/14 12:47:06;;;;;;;19.10;5.22;;;8.00;99.90;;;;;;5035149;28;20287;-79
2022/01/14 12:49:42;;;;;;;13.98;4.78;;;7.90;99.90;;;;;;5020636;28;20389;-79
2022/01/14 12:52:16;;;;;;;20.20;4.85;;;7.90;99.90;;;;;;5017860;28;20046;-79
2022/01/14 12:54:46;;;;;;;14.50;5.43;;;8.00;99.90;;;;;;5036079;28;20500;-79
2022/01/14 12:57:19;;;;;;;19.85;4.97;;;7.90;99.90;;;;;;5004512;28;20403;-80
2022/01/14 12:59:53;;;;;;;13.90;5.57;;;8.00;99.90;;;;;;5003206;28;20408;-79
2022/01/14 13:02:24;;;;;;;19.95;5.70;;;7.90;99.90;;;;;;5020043;28;20080;-79
2022/01/14 13:05:02;;;;;;;19.92;5.38;;;7.90;99.90;;;;;;5019805;28;20141;-79
2022/01/14 13:07:28;;;;;;;14.75;5.00;;;7.90;99.90;;;;;;5034996;28;20151;-80
2022/01/14 13:09:54;;;;;;;16.40;4.68;;;8.00;99.90;;;;;;5004718;28;20404;-79
2022/01/14 13:12:24;;;;;;;13.23;4.55;;;8.00;99.90;;;;;;5032256;28;20057;-79
2022/01/14 13:14:58;;;;;;;16.48;5.25;;;7.90;99.90;;;;;;5000998;28;20568;-79
2022/01/14 13:17:30;;;;;;;15.48;5.25;;;7.90;99.90;;;;;;5000287;28;20380;-80